createdAt,value
2022-09-30T00:00:48.625Z,13.85
2022-09-30T00:04:52.669Z,14.80
2022-09-30T00:08:55.768Z,14.88
2022-09-30T00:12:58.690Z,14.73
2022-09-30T00:17:01.371Z,13.25
2022-09-30T00:21:06.081Z,15.20
2022-09-30T00:25:09.280Z,15.45
2022-09-30T00:29:12.261Z,16.27
2022-09-30T00:33:14.967Z,15.75
2022-09-30T00:37:18.965Z,14.90
2022-09-30T00:41:22.382Z,15.75
2022-09-30T00:45:27.571Z,15.50
2022-09-30T00:49:30.258Z,14.93
2022-09-30T00:53:40.196Z,13.20
2022-09-30T00:57:42.950Z,13.98
2022-09-30T01:01:46.041Z,14.27
2022-09-30T01:05:49.314Z,11.75
2022-09-30T01:09:53.633Z,10.38
2022-09-30T01:14:00.600Z,9.27
2022-09-30T01:18:10.079Z,9.63
2022-09-30T01:22:24.163Z,9.55
2022-09-30T01:27:00.494Z,9.95
2022-09-30T01:31:11.580Z,9.95
2022-09-30T01:35:27.094Z,11.07
2022-09-30T01:39:39.625Z,12.00
2022-09-30T01:43:49.041Z,12.18
2022-09-30T01:47:59.649Z,12.20
2022-09-30T01:52:09.506Z,12.82
2022-09-30T01:56:18.338Z,12.60
2022-09-30T02:00:21.254Z,12.63
2022-09-30T02:04:32.465Z,14.20
2022-09-30T02:08:41.476Z,13.38
2022-09-30T02:12:50.981Z,13.63
2022-09-30T02:16:59.425Z,12.48
2022-09-30T02:21:06.273Z,13.07
2022-09-30T02:25:11.145Z,13.10
2022-09-30T02:29:18.637Z,13.68
2022-09-30T02:33:26.601Z,13.40
2022-09-30T02:37:36.344Z,12.88
2022-09-30T02:41:45.727Z,12.27
2022-09-30T02:45:56.809Z,11.98
2022-09-30T02:50:07.024Z,10.70
2022-09-30T02:54:20.266Z,12.05
2022-09-30T02:58:25.981Z,13.20
2022-09-30T03:02:29.598Z,13.17
2022-09-30T03:06:33.374Z,12.60
2022-09-30T03:10:37.547Z,13.10
2022-09-30T03:15:04.868Z,14.52
2022-09-30T03:19:22.088Z,13.48
2022-09-30T03:23:40.650Z,13.25
2022-09-30T03:27:52.554Z,12.50
2022-09-30T03:32:07.436Z,12.05
2022-09-30T03:36:21.686Z,13.15
2022-09-30T03:40:31.897Z,12.32
2022-09-30T03:44:42.638Z,12.52
2022-09-30T03:48:47.558Z,10.75
2022-09-30T03:52:51.075Z,10.88
2022-09-30T03:56:54.220Z,11.63
2022-09-30T04:00:59.071Z,10.48
2022-09-30T04:05:01.825Z,9.27
2022-09-30T04:09:04.714Z,9.30
2022-09-30T04:13:07.482Z,9.40
2022-09-30T04:17:11.640Z,9.55
2022-09-30T04:21:15.583Z,9.45
2022-09-30T04:25:18.315Z,10.23
2022-09-30T04:29:21.028Z,10.07
2022-09-30T04:33:25.150Z,12.98
2022-09-30T04:37:27.835Z,14.27
2022-09-30T04:41:32.192Z,14.93
2022-09-30T04:45:34.935Z,14.85
2022-09-30T04:49:39.008Z,16.00
2022-09-30T04:53:42.253Z,15.00
2022-09-30T04:57:45.690Z,15.32
2022-09-30T05:01:48.438Z,17.00
2022-09-30T05:05:52.525Z,15.27
2022-09-30T05:09:55.202Z,17.25
2022-09-30T05:13:57.902Z,14.95
2022-09-30T05:18:01.831Z,16.42
2022-09-30T05:22:05.843Z,16.75
2022-09-30T05:26:12.301Z,16.40
2022-09-30T05:30:15.743Z,15.95
2022-09-30T05:34:18.447Z,15.93
2022-09-30T05:38:22.624Z,17.73
2022-09-30T05:42:25.441Z,16.00
2022-09-30T05:46:29.101Z,17.65
2022-09-30T05:50:32.326Z,14.93
2022-09-30T05:54:36.384Z,15.82
2022-09-30T05:58:40.579Z,15.15
2022-09-30T06:02:43.353Z,17.67
2022-09-30T06:06:47.694Z,13.57
2022-09-30T06:10:52.005Z,14.32
2022-09-30T06:14:54.698Z,12.80
2022-09-30T06:18:57.414Z,13.23
2022-09-30T06:23:01.195Z,13.52
2022-09-30T06:27:05.414Z,12.63
2022-09-30T06:31:08.481Z,13.02
2022-09-30T06:35:11.236Z,11.35
2022-09-30T06:39:14.084Z,11.63
2022-09-30T06:43:18.128Z,10.65
2022-09-30T06:47:25.681Z,11.68
2022-09-30T06:51:33.152Z,12.00
2022-09-30T06:55:38.994Z,11.55
2022-09-30T06:59:44.532Z,11.68
2022-09-30T07:03:51.474Z,11.68
2022-09-30T07:07:57.246Z,11.40
2022-09-30T07:11:59.922Z,13.35
2022-09-30T07:16:04.104Z,13.02
2022-09-30T07:20:08.192Z,13.02
2022-09-30T07:24:11.605Z,10.82
2022-09-30T07:28:14.265Z,10.77
2022-09-30T07:32:19.454Z,9.00
2022-09-30T07:36:32.233Z,8.95
2022-09-30T07:40:36.030Z,8.77
2022-09-30T07:44:43.633Z,8.05
2022-09-30T07:48:51.500Z,7.22
2022-09-30T07:52:55.858Z,7.70
2022-09-30T07:57:14.907Z,7.53
2022-09-30T08:01:17.724Z,7.25
2022-09-30T08:05:21.835Z,7.68
2022-09-30T08:09:26.460Z,6.72
2022-09-30T08:13:29.374Z,7.50
2022-09-30T08:17:32.096Z,8.60
2022-09-30T08:21:36.150Z,8.55
2022-09-30T08:25:38.932Z,8.20
2022-09-30T08:30:00.107Z,7.32
2022-09-30T08:34:04.687Z,7.45
2022-09-30T08:38:08.710Z,7.68
2022-09-30T08:42:39.381Z,8.23
2022-09-30T08:46:47.974Z,8.85
2022-09-30T08:51:03.047Z,7.75
2022-09-30T08:55:09.314Z,7.40
2022-09-30T08:59:32.397Z,7.85
2022-09-30T09:03:35.150Z,7.20
2022-09-30T09:07:47.142Z,5.88
2022-09-30T09:12:03.052Z,5.65
2022-09-30T09:16:11.945Z,4.72
2022-09-30T09:20:17.589Z,4.38
2022-09-30T09:24:23.294Z,4.63
2022-09-30T09:28:36.829Z,5.65
2022-09-30T09:32:39.776Z,5.20
2022-09-30T09:36:55.941Z,4.53
2022-09-30T09:41:08.558Z,4.18
2022-09-30T09:45:22.750Z,3.85
2022-09-30T09:49:33.283Z,3.63
2022-09-30T09:53:45.895Z,4.18
2022-09-30T09:57:48.663Z,3.65
2022-09-30T10:01:54.546Z,5.57
2022-09-30T10:06:03.423Z,6.03
2022-09-30T10:10:09.269Z,5.65
2022-09-30T10:14:17.600Z,5.60
2022-09-30T10:18:26.946Z,4.38
2022-09-30T10:22:31.925Z,4.50
2022-09-30T10:26:48.573Z,4.97
2022-09-30T10:30:56.089Z,5.93
2022-09-30T10:35:04.125Z,4.15
2022-09-30T10:39:09.188Z,4.45
2022-09-30T10:43:24.452Z,4.47
2022-09-30T10:47:32.569Z,3.78
2022-09-30T10:51:40.471Z,5.38
2022-09-30T10:55:45.294Z,4.50
2022-09-30T10:59:48.323Z,5.40
2022-09-30T11:04:01.602Z,4.95
2022-09-30T11:08:14.634Z,4.80
2022-09-30T11:12:22.874Z,4.55
2022-09-30T11:16:32.348Z,3.92
2022-09-30T11:20:38.973Z,3.67
2022-09-30T11:24:46.024Z,3.75
2022-09-30T11:29:05.422Z,2.33
2022-09-30T11:33:25.057Z,2.83
2022-09-30T11:37:40.828Z,3.03
2022-09-30T11:41:51.678Z,3.10
2022-09-30T11:46:25.160Z,3.20
2022-09-30T11:50:42.486Z,3.03
2022-09-30T11:55:01.693Z,2.88
2022-09-30T11:59:14.358Z,2.60
2022-09-30T12:03:21.618Z,2.88
2022-09-30T12:07:33.025Z,2.47
2022-09-30T12:11:44.279Z,2.40
2022-09-30T12:15:51.335Z,2.20
2022-09-30T12:19:57.087Z,2.13
2022-09-30T12:24:07.254Z,2.03
2022-09-30T12:28:40.033Z,2.40
2022-09-30T12:33:10.648Z,2.00
2022-09-30T12:37:27.110Z,1.50
2022-09-30T12:41:43.316Z,1.65
2022-09-30T12:46:13.536Z,1.67
2022-09-30T12:50:21.459Z,2.47
2022-09-30T12:54:28.038Z,1.58
2022-09-30T13:02:40.199Z,1.42
2022-09-30T13:07:17.431Z,1.80
2022-09-30T13:11:44.168Z,2.30
2022-09-30T13:15:47.840Z,1.73
2022-09-30T13:19:52.608Z,1.90
2022-09-30T13:23:58.437Z,1.40
2022-09-30T13:28:29.743Z,1.75
2022-09-30T13:32:37.091Z,1.70
2022-09-30T13:36:42.746Z,1.45
2022-09-30T13:41:01.783Z,1.70
2022-09-30T13:45:11.043Z,1.75
2022-09-30T13:49:20.782Z,2.47
2022-09-30T13:53:29.845Z,1.63
2022-09-30T13:57:42.282Z,1.85
2022-09-30T14:01:57.251Z,1.92
2022-09-30T14:06:08.394Z,1.73
2022-09-30T14:10:30.646Z,1.60
2022-09-30T14:15:02.262Z,1.40
2022-09-30T14:19:30.101Z,1.77
2022-09-30T14:23:32.937Z,1.83
2022-09-30T14:28:05.264Z,1.80
2022-09-30T14:32:14.590Z,1.55
2022-09-30T14:36:21.727Z,1.67
2022-09-30T14:40:27.210Z,1.33
2022-09-30T14:44:33.809Z,1.80
2022-09-30T14:52:46.674Z,1.80
2022-09-30T14:56:50.884Z,1.95
2022-09-30T15:01:07.896Z,2.10
2022-09-30T15:05:14.529Z,2.50
2022-09-30T15:13:24.672Z,2.25
2022-09-30T15:17:29.411Z,1.92
2022-09-30T15:21:34.809Z,2.00
2022-09-30T15:25:38.671Z,1.92
2022-09-30T15:29:54.871Z,1.90
2022-09-30T15:34:06.182Z,2.15
2022-09-30T15:38:16.840Z,1.92
2022-09-30T15:42:31.862Z,1.85
2022-09-30T15:46:38.442Z,1.73
2022-09-30T15:50:43.522Z,1.65
2022-09-30T15:54:47.838Z,1.85
2022-09-30T15:58:56.921Z,1.90
2022-09-30T16:03:09.105Z,1.77
2022-09-30T16:07:17.980Z,2.10
2022-09-30T16:11:27.215Z,2.47
2022-09-30T16:15:30.127Z,2.22
2022-09-30T16:19:33.529Z,2.17
2022-09-30T16:23:38.242Z,2.00
2022-09-30T16:27:42.298Z,2.08
2022-09-30T16:31:46.689Z,2.08
2022-09-30T16:35:49.549Z,2.30
2022-09-30T16:39:52.302Z,2.40
2022-09-30T16:43:56.435Z,2.10
2022-09-30T16:48:01.465Z,2.30
2022-09-30T16:52:06.038Z,2.33
2022-09-30T16:56:15.130Z,2.30
2022-09-30T17:00:19.750Z,2.17
2022-09-30T17:04:22.443Z,2.20
2022-09-30T17:08:25.122Z,2.00
2022-09-30T17:12:27.790Z,2.53
2022-09-30T17:16:32.201Z,2.85
2022-09-30T17:20:35.725Z,3.05
2022-09-30T17:24:38.412Z,3.30
2022-09-30T17:28:41.203Z,4.78
2022-09-30T17:32:45.469Z,3.78
2022-09-30T17:36:48.203Z,3.95
2022-09-30T17:41:04.818Z,3.92
2022-09-30T17:45:08.387Z,3.35
2022-09-30T17:49:13.805Z,3.90
2022-09-30T17:53:18.867Z,3.92
2022-09-30T17:57:22.186Z,6.03
2022-09-30T18:01:25.075Z,6.82
2022-09-30T18:05:29.197Z,8.18
2022-09-30T18:09:33.002Z,8.43
2022-09-30T18:13:35.686Z,9.73
2022-09-30T18:17:38.358Z,8.98
2022-09-30T18:21:42.399Z,9.98
2022-09-30T18:25:45.252Z,7.50
2022-09-30T18:29:47.953Z,6.18
2022-09-30T18:33:51.730Z,5.78
2022-09-30T18:37:55.846Z,5.28
2022-09-30T18:42:00.397Z,5.55
2022-09-30T18:46:03.199Z,5.30
2022-09-30T18:50:07.019Z,7.88
2022-09-30T18:54:13.202Z,5.07
2022-09-30T18:58:17.284Z,6.75
2022-09-30T19:02:20.683Z,6.13
2022-09-30T19:06:23.786Z,5.28
2022-09-30T19:10:27.886Z,5.82
2022-09-30T19:14:31.043Z,5.18
2022-09-30T19:18:33.935Z,5.28
2022-09-30T19:22:37.230Z,5.05
2022-09-30T19:26:41.785Z,5.28
2022-09-30T19:30:45.199Z,5.68
2022-09-30T19:34:57.084Z,6.88
2022-09-30T19:39:11.979Z,5.75
2022-09-30T19:43:19.345Z,6.55
2022-09-30T19:47:22.448Z,4.68
2022-09-30T19:51:28.047Z,4.82
2022-09-30T19:55:36.344Z,4.50
2022-09-30T19:59:46.743Z,5.10
2022-09-30T20:03:49.997Z,4.38
2022-09-30T20:07:53.347Z,4.80
2022-09-30T20:11:56.050Z,5.03
2022-09-30T20:16:02.241Z,5.10
2022-09-30T20:20:23.110Z,5.03
2022-09-30T20:24:25.995Z,4.82
2022-09-30T20:28:28.864Z,5.57
2022-09-30T20:32:32.945Z,4.75
2022-09-30T20:36:35.638Z,5.05
2022-09-30T20:40:38.350Z,5.78
2022-09-30T20:44:43.817Z,5.93
2022-09-30T20:48:48.403Z,6.68
2022-09-30T20:52:51.171Z,4.75
2022-09-30T20:57:08.904Z,5.72
2022-09-30T21:01:13.958Z,5.65
2022-09-30T21:05:18.103Z,5.38
2022-09-30T21:09:20.829Z,5.47
2022-09-30T21:13:23.566Z,4.82
2022-09-30T21:17:26.280Z,4.85
2022-09-30T21:21:30.642Z,4.78
2022-09-30T21:25:33.776Z,5.10
2022-09-30T21:29:36.476Z,4.78
2022-09-30T21:33:39.143Z,5.28
2022-09-30T21:37:43.946Z,7.70
2022-09-30T21:41:47.562Z,7.50
2022-09-30T21:45:57.826Z,6.82
2022-09-30T21:50:02.023Z,6.82
2022-09-30T21:54:06.065Z,6.53
2022-09-30T21:58:08.722Z,6.55
2022-09-30T22:02:11.950Z,7.25
2022-09-30T22:06:16.566Z,6.93
2022-09-30T22:10:20.609Z,6.30
2022-09-30T22:14:23.481Z,5.57
2022-09-30T22:18:26.135Z,6.25
2022-09-30T22:22:28.945Z,5.47
2022-09-30T22:26:33.232Z,7.68
2022-09-30T22:30:36.028Z,6.82
2022-09-30T22:34:56.440Z,8.13
2022-09-30T22:38:59.135Z,10.30
2022-09-30T22:43:04.701Z,7.70
2022-09-30T22:47:10.157Z,7.82
2022-09-30T22:51:16.089Z,6.65
2022-09-30T22:55:18.753Z,8.75
2022-09-30T22:59:23.646Z,7.00
2022-09-30T23:03:31.922Z,6.80
2022-09-30T23:07:34.618Z,6.47
2022-09-30T23:11:37.398Z,6.28
2022-09-30T23:15:41.484Z,7.40
2022-09-30T23:19:44.191Z,7.68
2022-09-30T23:23:48.261Z,7.88
2022-09-30T23:27:50.991Z,7.50
2022-09-30T23:31:55.218Z,7.60
2022-09-30T23:35:59.382Z,9.15
2022-09-30T23:40:02.576Z,9.73
2022-09-30T23:44:05.890Z,9.45
2022-09-30T23:48:10.471Z,10.88
2022-09-30T23:52:14.022Z,12.45
2022-09-30T23:56:19.374Z,12.68
